Time;durP1;ratioP1;P1;durP2;ratioP2;P2;SDS_P1;SDS_P2;PMS_P1;PMS_P2;Temp;Humidity;BMP_temperature;BMP_pressure;BME280_temperature;BME280_humidity;BME280_pressure;Samples;Min_cycle;Max_cycle;Signal;HPM_P1;HPM_P2
2022/08/16 00:02:01;;;;;;;20.80;9.88;;;;;;;18.70;100.00;100431.50;5022824;28;20140;-65
2022/08/16 00:04:27;;;;;;;21.15;10.18;;;;;;;18.63;100.00;100429.03;5022843;28;20026;-65
2022/08/16 00:06:53;;;;;;;19.73;9.48;;;;;;;18.56;100.00;100435.53;5024206;28;20033;-65
2022/08/16 00:09:18;;;;;;;21.77;9.68;;;;;;;18.52;100.00;100433.03;5024207;28;20048;-65
2022/08/16 00:11:45;;;;;;;20.75;9.70;;;;;;;18.51;100.00;100429.50;5023079;28;20028;-65
2022/08/16 00:14:16;;;;;;;21.70;10.32;;;;;;;18.40;100.00;100435.19;5024909;28;20048;-65
2022/08/16 00:16:42;;;;;;;21.60;10.68;;;;;;;18.31;100.00;100427.50;5022682;28;20034;-66
2022/08/16 00:19:07;;;;;;;21.98;11.43;;;;;;;18.22;100.00;100433.16;5025200;28;20095;-64
2022/08/16 00:21:33;;;;;;;21.52;10.82;;;;;;;18.16;100.00;100436.03;5028336;28;20043;-64
2022/08/16 00:23:59;;;;;;;21.08;10.20;;;;;;;18.15;100.00;100437.84;5046943;28;20025;-65
2022/08/16 00:26:25;;;;;;;21.45;10.15;;;;;;;18.03;100.00;100440.94;5044812;28;20495;-64
2022/08/16 00:28:50;;;;;;;21.63;10.68;;;;;;;18.03;100.00;100444.47;5045563;28;20029;-65
2022/08/16 00:31:15;;;;;;;20.98;10.65;;;;;;;18.07;100.00;100447.91;5045918;28;20143;-68
2022/08/16 00:33:41;;;;;;;21.60;10.80;;;;;;;18.12;100.00;100446.84;5044197;28;20032;-67
2022/08/16 00:36:07;;;;;;;22.00;10.57;;;;;;;18.19;100.00;100450.19;5047308;28;20025;-68
2022/08/16 00:38:33;;;;;;;21.10;10.50;;;;;;;18.10;100.00;100446.03;5040049;28;20022;-68
2022/08/16 00:40:59;;;;;;;21.38;11.38;;;;;;;18.09;100.00;100446.06;5046363;28;20067;-69
2022/08/16 00:43:34;;;;;;;21.10;10.50;;;;;;;18.07;100.00;100448.81;5044408;28;20036;-67
2022/08/16 00:46:21;;;;;;;20.65;10.60;;;;;;;17.98;100.00;100449.09;5046320;28;20060;-69
2022/08/16 00:48:49;;;;;;;21.17;10.93;;;;;;;17.82;100.00;100451.34;5042704;28;20022;-68
2022/08/16 00:51:17;;;;;;;21.85;10.90;;;;;;;17.72;100.00;100449.88;5045987;28;20021;-68
2022/08/16 00:53:44;;;;;;;23.13;11.27;;;;;;;17.72;100.00;100460.59;5043928;28;20034;-68
2022/08/16 00:56:13;;;;;;;20.80;10.93;;;;;;;17.65;100.00;100451.00;5046826;28;20028;-68
2022/08/16 00:58:43;;;;;;;20.77;10.40;;;;;;;17.65;100.00;100453.69;5043541;28;20026;-68
2022/08/16 01:01:09;;;;;;;20.80;10.75;;;;;;;17.66;100.00;100450.09;5046377;28;20120;-68
2022/08/16 01:03:38;;;;;;;20.77;10.80;;;;;;;17.80;100.00;100457.69;5042981;28;20026;-67
2022/08/16 01:06:05;;;;;;;21.10;10.93;;;;;;;17.77;100.00;100458.66;5039283;28;20112;-69
2022/08/16 01:08:33;;;;;;;21.98;10.85;;;;;;;17.66;100.00;100456.28;5046277;28;20064;-68
2022/08/16 01:10:58;;;;;;;21.50;11.00;;;;;;;17.67;100.00;100451.84;5043464;28;20031;-67
2022/08/16 01:13:27;;;;;;;22.13;10.93;;;;;;;17.63;100.00;100452.88;5045530;28;20029;-66
2022/08/16 01:16:15;;;;;;;22.27;11.68;;;;;;;17.54;100.00;100460.22;5044438;28;20048;-66
2022/08/16 01:18:45;;;;;;;22.52;11.27;;;;;;;17.53;100.00;100461.19;5040345;28;20022;-66
2022/08/16 01:22:06;;;;;;;22.23;10.93;;;;;;;17.56;100.00;100450.38;5045865;28;20466;-67
2022/08/16 01:24:38;;;;;;;21.90;10.90;;;;;;;17.49;100.00;100448.81;5023897;28;20127;-67
2022/08/16 01:27:14;;;;;;;21.48;10.75;;;;;;;17.35;100.00;100451.91;5016858;28;20100;-67
2022/08/16 01:29:55;;;;;;;21.25;10.95;;;;;;;17.38;100.00;100451.81;5017707;28;20033;-62
2022/08/16 01:32:21;;;;;;;22.08;11.65;;;;;;;17.43;100.00;100465.91;5022390;28;20112;-62
2022/08/16 01:34:46;;;;;;;21.70;11.02;;;;;;;17.31;100.00;100455.56;5021616;28;20113;-61
2022/08/16 01:37:12;;;;;;;22.10;11.30;;;;;;;17.23;100.00;100454.94;5023406;28;20025;-60
2022/08/16 01:39:38;;;;;;;22.25;12.02;;;;;;;17.31;100.00;100444.91;5020316;28;20058;-64
2022/08/16 01:42:07;;;;;;;23.08;12.20;;;;;;;17.25;100.00;100445.09;5016579;28;20033;-60
2022/08/16 01:44:34;;;;;;;23.10;13.80;;;;;;;17.39;100.00;100450.88;5023584;28;20122;-61
2022/08/16 01:46:59;;;;;;;24.90;14.10;;;;;;;17.37;100.00;100452.75;5020808;28;20122;-62
2022/08/16 01:49:32;;;;;;;24.58;14.25;;;;;;;17.41;100.00;100456.19;5022509;28;20378;-66
2022/08/16 01:52:04;;;;;;;25.08;14.52;;;;;;;17.44;100.00;100453.41;5021208;28;20124;-65
2022/08/16 01:54:29;;;;;;;23.70;14.65;;;;;;;17.49;100.00;100454.16;5022941;28;20026;-66
2022/08/16 01:56:56;;;;;;;24.45;15.05;;;;;;;17.50;100.00;100455.03;5021273;28;20032;-67
2022/08/16 01:59:22;;;;;;;26.08;15.05;;;;;;;17.50;100.00;100449.69;5029655;28;20041;-65
2022/08/16 02:01:50;;;;;;;25.60;15.25;;;;;;;17.50;100.00;100452.34;5044300;28;20043;-66
2022/08/16 02:04:17;;;;;;;25.92;15.18;;;;;;;17.47;100.00;100456.00;5041851;28;20030;-65
2022/08/16 02:06:42;;;;;;;25.17;14.93;;;;;;;17.43;100.00;100452.56;5044929;28;20029;-65
2022/08/16 02:09:09;;;;;;;24.17;14.82;;;;;;;17.42;100.00;100456.13;5041924;28;20063;-66
2022/08/16 02:11:37;;;;;;;24.80;14.98;;;;;;;17.36;100.00;100461.69;5037963;28;20033;-65
2022/08/16 02:14:04;;;;;;;25.88;15.23;;;;;;;17.38;100.00;100456.28;5045424;28;20092;-61
2022/08/16 02:16:30;;;;;;;25.13;15.07;;;;;;;17.29;100.00;100456.56;5042246;28;20087;-61
2022/08/16 02:18:55;;;;;;;24.42;15.07;;;;;;;17.33;100.00;100450.19;5044084;28;20025;-61
2022/08/16 02:21:21;;;;;;;25.38;14.98;;;;;;;17.28;100.00;100446.78;5043597;28;20107;-61
2022/08/16 02:23:46;;;;;;;26.88;15.32;;;;;;;17.27;100.00;100453.94;5042480;28;20123;-61
2022/08/16 02:26:14;;;;;;;25.70;15.50;;;;;;;17.23;100.00;100452.28;5044252;28;20033;-60
2022/08/16 02:28:39;;;;;;;25.90;16.20;;;;;;;17.27;100.00;100456.63;5041627;28;20485;-61
2022/08/16 02:31:09;;;;;;;27.73;16.70;;;;;;;17.24;100.00;100456.69;5044691;28;20033;-62
2022/08/16 02:33:35;;;;;;;25.25;16.15;;;;;;;17.19;100.00;100447.94;5037409;28;20488;-61
2022/08/16 02:36:00;;;;;;;27.20;17.20;;;;;;;17.14;100.00;100452.53;5044507;28;20498;-61
2022/08/16 02:38:27;;;;;;;26.67;16.95;;;;;;;17.12;100.00;100454.38;5042379;28;20033;-60
2022/08/16 02:40:53;;;;;;;25.30;16.25;;;;;;;17.08;100.00;100459.81;5043203;28;20362;-61
2022/08/16 02:43:19;;;;;;;25.90;17.08;;;;;;;17.05;100.00;100443.88;5043316;28;20021;-62
2022/08/16 02:45:44;;;;;;;26.50;17.33;;;;;;;17.05;100.00;100451.91;5041782;28;20492;-64
2022/08/16 02:48:10;;;;;;;27.50;17.17;;;;;;;17.06;100.00;100450.94;5044409;28;20112;-63
2022/08/16 02:50:35;;;;;;;27.42;17.90;;;;;;;17.06;100.00;100453.63;5041307;28;20028;-63
2022/08/16 02:53:00;;;;;;;27.98;18.50;;;;;;;16.99;100.00;100454.72;5044025;28;20052;-65
2022/08/16 02:55:26;;;;;;;27.35;17.63;;;;;;;16.95;100.00;100446.84;5042365;28;20031;-65
2022/08/16 02:57:51;;;;;;;27.15;17.60;;;;;;;16.92;100.00;100447.84;5043123;28;20088;-64
2022/08/16 03:00:18;;;;;;;26.77;17.92;;;;;;;16.86;100.00;100443.50;5043234;28;20124;-65
2022/08/16 03:02:44;;;;;;;27.17;17.63;;;;;;;16.86;100.00;100442.59;5041724;28;20029;-62
2022/08/16 03:05:12;;;;;;;26.95;18.40;;;;;;;16.83;100.00;100442.69;5044616;28;20090;-65
2022/08/16 03:07:38;;;;;;;27.45;18.60;;;;;;;16.80;100.00;100449.00;5040758;28;20437;-64
2022/08/16 03:10:07;;;;;;;26.63;17.90;;;;;;;16.84;100.00;100447.13;5044304;28;20052;-65
2022/08/16 03:12:32;;;;;;;27.55;18.42;;;;;;;16.80;100.00;100446.31;5041516;28;20036;-65
2022/08/16 03:14:58;;;;;;;27.13;18.23;;;;;;;16.80;100.00;100435.63;5043203;28;20029;-63
2022/08/16 03:17:25;;;;;;;27.38;18.00;;;;;;;16.80;100.00;100440.13;5042430;28;20361;-65
2022/08/16 03:19:52;;;;;;;26.10;17.60;;;;;;;16.80;100.00;100438.31;5042640;28;20447;-65
2022/08/16 03:22:19;;;;;;;27.58;18.15;;;;;;;16.82;100.00;100452.50;5043077;28;20511;-66
2022/08/16 03:24:45;;;;;;;27.20;18.33;;;;;;;16.77;100.00;100435.72;5041440;28;20041;-65
2022/08/16 03:27:11;;;;;;;26.40;18.15;;;;;;;16.74;100.00;100436.69;5042989;28;20456;-65
2022/08/16 03:29:36;;;;;;;26.10;16.90;;;;;;;16.79;100.00;100441.03;5040568;28;20021;-66
2022/08/16 03:32:03;;;;;;;26.58;18.00;;;;;;;16.81;100.00;100436.53;5044155;28;20025;-64
2022/08/16 03:34:30;;;;;;;28.42;18.95;;;;;;;16.78;100.00;100439.28;5041852;28;20037;-65
2022/08/16 03:36:56;;;;;;;27.42;17.92;;;;;;;16.72;100.00;100445.69;5043912;28;20075;-65
2022/08/16 03:39:22;;;;;;;27.77;18.42;;;;;;;16.69;100.00;100451.09;5046775;28;20025;-68
2022/08/16 03:41:49;;;;;;;28.02;18.23;;;;;;;16.60;100.00;100446.88;5045628;28;20030;-68
2022/08/16 03:44:14;;;;;;;28.13;18.77;;;;;;;16.56;100.00;100453.22;5047137;28;20049;-67
2022/08/16 03:46:39;;;;;;;28.10;18.98;;;;;;;16.55;100.00;100454.13;5045037;28;20108;-67
2022/08/16 03:49:07;;;;;;;28.05;19.80;;;;;;;16.53;100.00;100456.84;5040665;28;20060;-68
2022/08/16 03:51:33;;;;;;;28.00;19.52;;;;;;;16.55;100.00;100462.13;5047623;28;20476;-68
2022/08/16 03:53:58;;;;;;;28.77;20.00;;;;;;;16.54;100.00;100463.94;5045401;28;20040;-68
2022/08/16 03:56:26;;;;;;;28.67;19.48;;;;;;;16.52;100.00;100459.53;5046283;28;20025;-68
2022/08/16 03:58:51;;;;;;;28.02;20.25;;;;;;;16.54;100.00;100468.38;5046169;28;20118;-68
2022/08/16 04:01:17;;;;;;;28.30;20.23;;;;;;;16.50;100.00;100467.59;5045298;28;20216;-68
2022/08/16 04:03:43;;;;;;;29.50;20.25;;;;;;;16.50;100.00;100464.06;5047297;28;20025;-68
2022/08/16 04:06:09;;;;;;;29.35;20.90;;;;;;;16.52;100.00;100475.56;5023102;28;20029;-68
2022/08/16 04:08:34;;;;;;;29.67;21.38;;;;;;;16.54;100.00;100485.28;5047536;28;20028;-68
2022/08/16 04:10:59;;;;;;;30.33;22.15;;;;;;;16.57;100.00;100481.63;5045093;28;20056;-68
2022/08/16 04:13:26;;;;;;;31.30;22.50;;;;;;;16.62;100.00;100482.41;5046119;28;20025;-68
2022/08/16 04:15:51;;;;;;;30.88;21.92;;;;;;;16.66;100.00;100481.41;5045808;28;20029;-68
2022/08/16 04:18:17;;;;;;;30.38;22.77;;;;;;;16.66;100.00;100480.50;5044841;28;20033;-67
2022/08/16 04:20:42;;;;;;;30.60;22.63;;;;;;;16.67;100.00;100479.59;5047091;28;20116;-65
2022/08/16 04:23:08;;;;;;;30.55;22.30;;;;;;;16.66;100.00;100484.06;5043954;28;20022;-65
2022/08/16 04:25:34;;;;;;;30.30;22.98;;;;;;;16.65;100.00;100487.66;5047003;28;20029;-64
2022/08/16 04:28:00;;;;;;;32.35;23.67;;;;;;;16.72;100.00;100483.03;5044725;28;20025;-66
2022/08/16 04:30:26;;;;;;;31.50;22.90;;;;;;;16.69;100.00;100492.00;5045912;28;20025;-65
2022/08/16 04:32:52;;;;;;;32.00;22.55;;;;;;;16.72;100.00;100489.25;5045388;28;20025;-67
2022/08/16 04:35:20;;;;;;;30.40;22.85;;;;;;;16.74;100.00;100490.06;5044606;28;20136;-66
2022/08/16 04:37:46;;;;;;;31.30;22.77;;;;;;;16.77;100.00;100488.25;5046831;28;20033;-67
2022/08/16 04:40:12;;;;;;;32.15;23.20;;;;;;;16.81;100.00;100484.59;5043858;28;20030;-65
2022/08/16 04:42:40;;;;;;;30.20;22.30;;;;;;;16.80;100.00;100490.81;5047123;28;20021;-65
2022/08/16 04:45:09;;;;;;;30.60;23.13;;;;;;;16.77;100.00;100494.44;5038908;28;20037;-67
2022/08/16 04:47:34;;;;;;;29.83;22.35;;;;;;;16.74;100.00;100484.72;5045266;28;20028;-67
2022/08/16 04:50:21;;;;;;;31.83;23.08;;;;;;;16.78;100.00;100485.53;5043082;28;20143;-66
2022/08/16 04:52:48;;;;;;;30.65;22.88;;;;;;;16.81;100.00;100493.44;5040268;28;20044;-64
2022/08/16 04:55:17;;;;;;;31.95;23.40;;;;;;;16.79;100.00;100494.41;5044382;28;20122;-64
2022/08/16 04:57:43;;;;;;;31.42;23.15;;;;;;;16.81;100.00;100489.91;5042303;28;20026;-66
2022/08/16 05:00:13;;;;;;;32.03;22.98;;;;;;;16.83;100.00;100498.75;5045373;28;20029;-65
2022/08/16 05:02:39;;;;;;;33.08;24.10;;;;;;;16.85;100.00;100494.25;5038400;28;20029;-65
2022/08/16 05:05:05;;;;;;;32.00;23.48;;;;;;;16.88;100.00;100503.09;5045266;28;20025;-65
2022/08/16 05:07:31;;;;;;;34.22;24.00;;;;;;;16.90;100.00;100497.69;5042534;28;20392;-65
2022/08/16 05:09:56;;;;;;;30.80;23.02;;;;;;;16.93;100.00;100497.59;5044192;28;20032;-65
2022/08/16 05:12:21;;;;;;;32.50;23.35;;;;;;;16.98;100.00;100498.38;5043821;28;20480;-65
2022/08/16 05:14:47;;;;;;;33.05;23.10;;;;;;;17.01;100.00;100503.63;5042766;28;20468;-65
2022/08/16 05:17:12;;;;;;;31.27;23.10;;;;;;;17.04;100.00;100505.34;5045353;28;20025;-67
2022/08/16 05:19:38;;;;;;;31.45;23.70;;;;;;;17.03;100.00;100509.78;5041791;28;20436;-65
2022/08/16 05:22:03;;;;;;;31.33;22.80;;;;;;;17.07;100.00;100506.13;5044835;28;20047;-64
2022/08/16 05:24:28;;;;;;;31.00;23.15;;;;;;;17.07;100.00;100511.47;5043030;28;20025;-65
2022/08/16 05:26:54;;;;;;;31.63;23.40;;;;;;;17.07;100.00;100514.13;5043647;28;20021;-64
2022/08/16 05:29:19;;;;;;;30.30;22.77;;;;;;;17.11;100.00;100516.72;5044008;28;20112;-66
2022/08/16 05:31:44;;;;;;;31.33;23.30;;;;;;;17.12;100.00;100513.13;5042035;28;20095;-64
2022/08/16 05:34:10;;;;;;;31.08;23.55;;;;;;;17.12;100.00;100514.00;5045044;28;20028;-66
2022/08/16 05:36:36;;;;;;;32.60;24.48;;;;;;;17.15;100.00;100515.72;5042006;28;20025;-65
2022/08/16 05:39:03;;;;;;;31.65;23.60;;;;;;;17.18;100.00;100513.84;5044214;28;20103;-64
2022/08/16 05:41:28;;;;;;;33.15;24.10;;;;;;;17.22;100.00;100527.97;5042612;28;20029;-65
2022/08/16 05:43:53;;;;;;;30.20;23.27;;;;;;;17.26;100.00;100526.97;5043141;28;20498;-68
2022/08/16 05:46:19;;;;;;;32.38;23.08;;;;;;;17.31;100.00;100535.72;5002064;28;1174489;-67
2022/08/16 05:48:45;;;;;;;32.83;23.88;;;;;;;17.34;100.00;100534.75;5042958;28;20036;-67
2022/08/16 05:51:10;;;;;;;31.63;23.40;;;;;;;17.37;100.00;100530.22;5044860;28;20120;-68
2022/08/16 05:53:36;;;;;;;31.30;23.55;;;;;;;17.40;100.00;100538.13;5042181;28;20108;-68
2022/08/16 05:56:02;;;;;;;30.98;23.50;;;;;;;17.43;100.00;100540.72;5044919;28;20031;-67
2022/08/16 05:58:27;;;;;;;31.42;23.10;;;;;;;17.50;100.00;100535.19;5043326;28;20117;-67
2022/08/16 06:00:53;;;;;;;30.35;22.60;;;;;;;17.54;100.00;100536.84;5042583;28;20034;-68
2022/08/16 06:03:18;;;;;;;31.23;22.58;;;;;;;17.60;100.00;100534.00;5036990;28;20040;-69
2022/08/16 06:05:43;;;;;;;30.70;21.85;;;;;;;17.68;100.00;100541.78;5031363;28;20083;-60
2022/08/16 06:08:08;;;;;;;31.67;22.80;;;;;;;17.73;100.00;100547.88;5035475;28;20044;-60
2022/08/16 06:10:34;;;;;;;29.17;21.90;;;;;;;17.77;100.00;100546.88;5032483;28;20086;-60
2022/08/16 06:12:59;;;;;;;29.95;22.40;;;;;;;17.84;100.00;100545.75;5033737;28;20146;-63
2022/08/16 06:15:25;;;;;;;30.35;21.92;;;;;;;17.92;100.00;100542.88;5031437;28;20025;-63
2022/08/16 06:17:50;;;;;;;29.25;22.08;;;;;;;17.98;100.00;100548.03;5031265;28;20039;-66
2022/08/16 06:20:19;;;;;;;30.50;21.75;;;;;;;18.03;100.00;100551.44;5029908;28;20029;-64
2022/08/16 06:22:44;;;;;;;29.00;21.35;;;;;;;18.10;100.00;100547.66;5033797;28;20533;-66
2022/08/16 06:25:12;;;;;;;31.17;21.90;;;;;;;18.16;100.00;100551.03;5031624;28;20106;-61
2022/08/16 06:27:38;;;;;;;29.83;21.13;;;;;;;18.22;100.00;100554.41;5032447;28;20055;-60
2022/08/16 06:30:06;;;;;;;29.30;22.00;;;;;;;18.31;100.00;100560.41;5031525;28;20029;-61
2022/08/16 06:32:31;;;;;;;29.23;21.52;;;;;;;18.36;100.00;100563.78;5033120;28;20025;-60
2022/08/16 06:34:56;;;;;;;29.58;21.33;;;;;;;18.44;100.00;100562.63;5034011;28;20035;-60
2022/08/16 06:37:22;;;;;;;27.92;21.48;;;;;;;18.51;100.00;100573.09;5031559;28;20025;-64
2022/08/16 06:39:47;;;;;;;29.23;21.60;;;;;;;18.57;100.00;100570.25;5034632;28;20057;-61
2022/08/16 06:42:12;;;;;;;29.15;21.25;;;;;;;18.63;100.00;100568.22;5030843;28;20025;-63
2022/08/16 06:44:38;;;;;;;29.85;21.38;;;;;;;18.72;100.00;100560.81;5031808;28;20052;-63
2022/08/16 06:47:03;;;;;;;29.10;21.85;;;;;;;18.79;100.00;100573.94;5032550;28;20491;-62
2022/08/16 06:49:29;;;;;;;29.65;22.30;;;;;;;18.81;100.00;100569.44;5031231;28;20103;-63
2022/08/16 06:51:54;;;;;;;28.48;21.42;;;;;;;18.88;100.00;100572.78;5033470;28;20029;-62
2022/08/16 06:54:19;;;;;;;29.52;21.23;;;;;;;18.92;100.00;100570.88;5029817;28;20033;-65
2022/08/16 06:56:45;;;;;;;30.58;21.40;;;;;;;18.99;100.00;100573.28;5031687;28;20037;-62
2022/08/16 06:59:10;;;;;;;29.58;21.92;;;;;;;19.05;100.00;100572.22;5031111;28;20492;-65
2022/08/16 07:01:36;;;;;;;29.63;22.25;;;;;;;19.10;100.00;100569.34;5034838;28;20028;-64
2022/08/16 07:04:02;;;;;;;28.65;21.50;;;;;;;19.17;100.00;100577.13;5030313;28;20033;-61
2022/08/16 07:06:30;;;;;;;29.35;22.48;;;;;;;19.23;100.00;100589.41;5036016;28;20431;-62
2022/08/16 07:08:56;;;;;;;30.75;22.42;;;;;;;19.30;100.00;100579.38;5029254;28;20091;-61
2022/08/16 07:11:21;;;;;;;28.92;21.85;;;;;;;19.36;100.00;100578.28;5031574;28;20025;-62
2022/08/16 07:13:47;;;;;;;30.27;22.17;;;;;;;19.42;100.00;100578.03;5027125;28;20587;-61
2022/08/16 07:16:15;;;;;;;29.73;22.75;;;;;;;19.50;100.00;100581.31;5031330;28;20021;-61
2022/08/16 07:18:42;;;;;;;29.77;21.38;;;;;;;19.59;100.00;100582.78;5032972;28;20104;-62
2022/08/16 07:21:09;;;;;;;28.02;21.35;;;;;;;19.70;100.00;100583.25;5033177;28;20083;-62
2022/08/16 07:23:36;;;;;;;30.83;22.02;;;;;;;19.78;100.00;100591.91;5031016;28;20377;-63
2022/08/16 07:26:03;;;;;;;27.35;20.77;;;;;;;19.85;100.00;100588.06;5042317;28;20022;-65
2022/08/16 07:28:28;;;;;;;29.17;21.67;;;;;;;19.93;100.00;100597.63;5043018;28;20028;-61
2022/08/16 07:30:55;;;;;;;29.27;22.42;;;;;;;19.96;100.00;100589.47;5041381;28;20030;-66
2022/08/16 07:33:20;;;;;;;28.98;21.55;;;;;;;20.07;100.00;100592.59;5043779;28;20040;-69
2022/08/16 07:35:46;;;;;;;29.67;22.20;;;;;;;20.17;100.00;100594.00;5041106;28;20112;-71
2022/08/16 07:38:11;;;;;;;30.23;21.48;;;;;;;20.24;100.00;100596.41;5042320;28;20464;-71
2022/08/16 07:40:37;;;;;;;29.80;21.45;;;;;;;20.35;100.00;100597.72;5041566;28;20044;-71
2022/08/16 07:43:03;;;;;;;29.77;20.50;;;;;;;20.52;100.00;100604.25;5042536;28;20029;-71
2022/08/16 07:45:29;;;;;;;28.50;21.30;;;;;;;20.62;100.00;100605.63;5042402;28;20373;-71
2022/08/16 07:47:54;;;;;;;28.70;20.25;;;;;;;20.70;100.00;100608.00;5041052;28;20088;-71
2022/08/16 07:50:19;;;;;;;28.35;20.88;;;;;;;20.73;100.00;100607.88;5042735;28;20543;-70
2022/08/16 07:52:45;;;;;;;28.58;20.83;;;;;;;20.75;100.00;100616.75;5036356;28;20448;-71
2022/08/16 07:55:13;;;;;;;27.85;20.70;;;;;;;20.77;100.00;100608.63;5043355;28;20519;-71
2022/08/16 07:57:40;;;;;;;28.35;19.80;;;;;;;20.85;100.00;100614.53;5041287;28;20468;-71
2022/08/16 08:00:06;;;;;;;27.33;18.83;;;;;;;20.94;100.00;100614.16;5042564;28;20033;-71
2022/08/16 08:02:32;;;;;;;27.98;18.25;;;;;;;21.09;100.00;100607.25;5041890;28;20480;-71
2022/08/16 08:04:57;;;;;;;28.13;18.70;;;;;;;21.15;100.00;100619.56;5041764;28;20068;-71
2022/08/16 08:07:23;;;;;;;25.77;17.83;;;;;;;21.13;100.00;100614.25;5043565;28;20106;-71
2022/08/16 08:09:50;;;;;;;27.00;18.05;;;;;;;21.16;100.00;100611.44;5040178;28;20030;-68
2022/08/16 08:12:18;;;;;;;27.40;17.52;;;;;;;21.29;100.00;100613.56;5036576;28;20042;-71
2022/08/16 08:14:44;;;;;;;25.98;17.65;;;;;;;21.47;100.00;100626.19;5043467;28;20029;-71
2022/08/16 08:17:09;;;;;;;27.35;16.23;;;;;;;21.74;100.00;100634.00;5040790;28;20025;-71
2022/08/16 08:19:36;;;;;;;25.60;16.33;;;;;;;22.37;100.00;100624.84;5042258;28;20032;-71
2022/08/16 08:22:03;;;;;;;25.23;15.45;;;;;;;22.89;100.00;100635.72;5042229;28;20021;-72
2022/08/16 08:24:32;;;;;;;24.80;14.70;;;;;;;23.21;100.00;100632.34;5044495;28;20022;-67
2022/08/16 08:27:02;;;;;;;24.85;15.48;;;;;;;23.70;100.00;100628.91;5046562;28;20095;-62
2022/08/16 08:29:28;;;;;;;23.60;13.45;;;;;;;24.15;98.15;100622.81;5045066;28;20032;-69
2022/08/16 08:31:53;;;;;;;22.65;13.30;;;;;;;24.58;93.12;100624.91;5046923;28;20033;-67
2022/08/16 08:34:20;;;;;;;22.88;13.52;;;;;;;24.81;90.50;100641.63;5043626;28;20119;-70
2022/08/16 08:36:47;;;;;;;21.92;12.50;;;;;;;24.94;89.43;100626.44;5039572;28;20471;-69
2022/08/16 08:39:14;;;;;;;23.95;12.80;;;;;;;25.02;84.76;100634.97;5046700;28;20028;-69
2022/08/16 08:41:41;;;;;;;22.90;11.65;;;;;;;25.32;82.76;100633.25;5044434;28;20025;-70
2022/08/16 08:44:06;;;;;;;22.05;12.68;;;;;;;25.24;82.01;100625.56;5045807;28;20029;-70
2022/08/16 08:46:32;;;;;;;23.58;13.30;;;;;;;25.34;82.97;100631.34;5044967;28;20043;-69
2022/08/16 08:48:57;;;;;;;23.55;12.27;;;;;;;25.73;81.15;100633.41;5044470;28;20412;-70
2022/08/16 08:51:24;;;;;;;23.08;12.63;;;;;;;25.87;79.16;100634.38;5046412;28;20029;-70
2022/08/16 08:53:49;;;;;;;23.08;12.93;;;;;;;25.77;77.79;100638.63;5043324;28;20025;-68
2022/08/16 08:56:15;;;;;;;22.10;11.80;;;;;;;25.60;78.22;100629.72;5044189;28;20036;-70
2022/08/16 08:58:41;;;;;;;22.48;11.38;;;;;;;26.20;76.62;100636.78;5045513;28;20025;-70
2022/08/16 09:01:07;;;;;;;22.30;12.52;;;;;;;26.41;74.28;100642.63;5043618;28;20029;-70
2022/08/16 09:03:33;;;;;;;21.92;11.30;;;;;;;26.62;73.90;100644.94;5046050;28;20020;-70
2022/08/16 09:06:01;;;;;;;21.55;10.40;;;;;;;27.00;72.64;100635.19;5039492;28;20346;-69
2022/08/16 09:08:27;;;;;;;21.83;10.85;;;;;;;27.20;70.93;100641.97;5046687;28;20482;-67
2022/08/16 09:10:57;;;;;;;21.83;10.40;;;;;;;27.31;69.80;100653.81;5043606;28;20100;-69
2022/08/16 09:13:23;;;;;;;20.63;10.95;;;;;;;27.11;69.28;100648.91;5045455;28;20030;-68
2022/08/16 09:15:54;;;;;;;21.33;9.95;;;;;;;27.01;71.89;100650.50;5044048;28;20028;-68
2022/08/16 09:18:21;;;;;;;21.80;11.00;;;;;;;26.68;70.31;100652.69;5045242;28;20079;-69
2022/08/16 09:20:48;;;;;;;21.20;10.70;;;;;;;26.13;72.54;100654.41;5044330;28;20036;-65
2022/08/16 09:23:13;;;;;;;21.10;10.93;;;;;;;26.08;72.26;100654.69;5044097;28;20454;-68
2022/08/16 09:25:39;;;;;;;21.02;9.60;;;;;;;26.49;71.92;100652.09;5045572;28;20064;-68
2022/08/16 09:28:05;;;;;;;21.25;9.20;;;;;;;27.27;66.30;100656.84;5042776;28;20024;-69
2022/08/16 09:30:33;;;;;;;22.33;9.02;;;;;;;27.74;63.63;100668.09;5046088;28;20068;-68
2022/08/16 09:32:59;;;;;;;19.77;8.98;;;;;;;27.62;52.41;100648.13;5038883;28;20071;-69
2022/08/16 09:35:25;;;;;;;19.38;8.77;;;;;;;27.70;53.06;100659.31;5044531;28;20036;-69
2022/08/16 09:37:51;;;;;;;19.92;9.40;;;;;;;28.17;48.02;100667.78;5043557;28;20028;-67
2022/08/16 09:40:17;;;;;;;19.85;8.68;;;;;;;28.62;47.51;100667.28;5043294;28;20033;-68
2022/08/16 09:42:42;;;;;;;19.23;8.40;;;;;;;29.41;45.63;100664.91;5044724;28;20637;-69
2022/08/16 09:45:09;;;;;;;20.45;8.15;;;;;;;29.87;42.24;100649.56;5042861;28;20408;-65
2022/08/16 09:47:39;;;;;;;20.52;7.97;;;;;;;30.77;39.83;100659.47;5044388;28;20033;-72
2022/08/16 09:50:12;;;;;;;19.35;7.88;;;;;;;31.23;37.41;100655.59;5042722;28;20380;-72
2022/08/16 09:52:38;;;;;;;18.13;7.30;;;;;;;31.32;35.80;100651.22;5045309;28;20021;-72
2022/08/16 09:55:11;;;;;;;18.30;8.00;;;;;;;31.12;35.79;100652.94;5042550;28;20029;-72
2022/08/16 09:57:39;;;;;;;19.02;7.78;;;;;;;31.17;35.02;100655.28;5039440;28;20017;-72
2022/08/16 10:00:09;;;;;;;18.48;7.78;;;;;;;31.29;35.69;100656.94;5045376;28;20024;-72
2022/08/16 10:02:35;;;;;;;18.42;7.22;;;;;;;31.16;35.36;100662.59;5041967;28;20025;-72
2022/08/16 10:05:00;;;;;;;18.15;7.00;;;;;;;31.35;34.90;100655.53;5044289;28;20435;-72
2022/08/16 10:07:28;;;;;;;16.83;7.00;;;;;;;32.03;34.31;100655.09;5042306;28;20021;-72
2022/08/16 10:09:53;;;;;;;18.25;6.78;;;;;;;32.76;32.57;100654.91;5044475;28;20095;-71
2022/08/16 10:15:03;;;;;;;17.20;6.47;;;;;;;32.72;31.33;100664.41;5038450;28;20393;-72
2022/08/16 10:17:28;;;;;;;19.35;6.35;;;;;;;32.35;30.92;100667.78;5045108;28;20021;-72
2022/08/16 10:19:54;;;;;;;17.73;6.45;;;;;;;32.50;31.09;100667.25;5042449;28;20111;-72
2022/08/16 10:22:20;;;;;;;18.00;6.53;;;;;;;32.23;30.36;100654.19;5043721;28;20032;-72
2022/08/16 10:24:45;;;;;;;16.85;6.30;;;;;;;32.07;31.26;100659.28;5043528;28;20023;-72
2022/08/16 10:27:11;;;;;;;17.92;6.75;;;;;;;32.74;31.17;100666.00;5042607;28;20388;-73
2022/08/16 10:29:36;;;;;;;18.48;6.75;;;;;;;32.89;29.95;100657.38;5044603;28;20037;-72
2022/08/16 10:32:03;;;;;;;17.30;6.07;;;;;;;33.41;29.42;100659.81;5041494;28;20020;-72
2022/08/16 10:34:28;;;;;;;19.75;6.50;;;;;;;32.33;30.35;100660.56;5044952;28;20029;-71
2022/08/16 10:36:54;;;;;;;16.20;6.30;;;;;;;31.50;32.21;100661.53;5042201;28;20041;-71
2022/08/16 10:39:19;;;;;;;18.33;6.95;;;;;;;31.84;31.75;100659.47;5043533;28;20065;-71
2022/08/16 10:41:45;;;;;;;17.60;6.35;;;;;;;32.17;32.09;100659.34;5043531;28;20021;-70
2022/08/16 10:44:11;;;;;;;16.45;6.10;;;;;;;33.18;30.64;100650.00;5040806;28;20079;-71
2022/08/16 10:46:36;;;;;;;18.17;6.38;;;;;;;33.78;28.85;100662.66;5043876;28;20049;-70
2022/08/16 10:49:02;;;;;;;16.95;6.28;;;;;;;33.78;29.88;100673.59;5041745;28;20112;-71
2022/08/16 10:51:27;;;;;;;16.88;6.57;;;;;;;33.81;28.84;100665.09;5042950;28;20051;-67
2022/08/16 10:53:52;;;;;;;17.25;6.88;;;;;;;34.56;28.30;100661.47;5042599;28;20154;-67
2022/08/16 10:56:18;;;;;;;19.45;6.35;;;;;;;35.14;27.07;100664.78;5042976;28;20518;-68
2022/08/16 10:58:43;;;;;;;17.55;6.53;;;;;;;34.50;27.17;100671.16;5043239;28;20498;-69
2022/08/16 11:01:10;;;;;;;17.52;6.35;;;;;;;35.02;26.44;100670.50;5041629;28;20538;-69
2022/08/16 11:03:37;;;;;;;16.63;6.00;;;;;;;34.92;26.15;100667.88;5044448;28;20151;-67
2022/08/16 11:06:05;;;;;;;18.48;6.78;;;;;;;34.18;27.28;100675.19;5041082;28;20029;-64